Time;durP1;ratioP1;P1;durP2;ratioP2;P2;SDS_P1;SDS_P2;PMS_P1;PMS_P2;Temp;Humidity;BMP_temperature;BMP_pressure;BME280_temperature;BME280_humidity;BME280_pressure;Samples;Min_cycle;Max_cycle;Signal;HPM_P1;HPM_P2
2022/10/31 00:01:37;;;;;;;15.95;7.68;;;;;;;12.61;100.00;100639.66;6328827;28;20043;-78
2022/10/31 00:04:38;;;;;;;10.80;6.75;;;;;;;12.49;100.00;100633.38;6311676;28;20051;-78
2022/10/31 00:07:38;;;;;;;14.00;7.38;;;;;;;12.32;100.00;100644.03;6328794;28;20075;-78
2022/10/31 00:10:41;;;;;;;16.35;7.95;;;;;;;12.39;100.00;100638.31;6346677;28;20043;-78
2022/10/31 00:13:41;;;;;;;12.55;6.70;;;;;;;12.48;100.00;100634.31;6346740;28;20043;-78
2022/10/31 00:16:42;;;;;;;11.82;6.45;;;;;;;12.56;100.00;100637.31;6328578;28;20124;-79
2022/10/31 00:19:43;;;;;;;15.93;7.43;;;;;;;12.52;100.00;100638.44;6328410;28;20046;-79
2022/10/31 00:22:44;;;;;;;15.32;7.60;;;;;;;12.54;100.00;100630.47;6328347;28;20165;-79
2022/10/31 00:25:44;;;;;;;19.23;7.75;;;;;;;12.41;100.00;100636.44;6328212;28;20036;-79
2022/10/31 00:28:45;;;;;;;17.30;7.50;;;;;;;12.47;100.00;100627.38;6346394;28;20071;-77
2022/10/31 00:31:46;;;;;;;16.02;7.20;;;;;;;12.54;100.00;100638.31;6328127;28;20042;-78
2022/10/31 00:34:47;;;;;;;14.13;7.75;;;;;;;12.55;100.00;100640.88;6327996;28;20039;-79
2022/10/31 00:37:47;;;;;;;15.38;8.52;;;;;;;12.54;100.00;100633.09;6328148;28;20044;-77
2022/10/31 00:40:48;;;;;;;15.63;7.45;;;;;;;12.45;100.00;100645.78;6328094;28;20047;-77
2022/10/31 00:43:49;;;;;;;15.60;7.18;;;;;;;12.50;100.00;100645.53;6310972;28;20055;-78
2022/10/31 00:46:49;;;;;;;15.85;7.47;;;;;;;12.44;100.00;100648.53;6327984;28;20387;-77
2022/10/31 00:49:50;;;;;;;14.52;7.78;;;;;;;12.43;100.00;100647.66;6294451;28;20075;-77
2022/10/31 00:52:51;;;;;;;15.23;7.47;;;;;;;12.49;100.00;100647.28;6294376;28;20484;-77
2022/10/31 00:55:52;;;;;;;13.85;7.35;;;;;;;12.46;100.00;100649.28;6294277;28;20141;-77
2022/10/31 00:58:53;;;;;;;14.70;7.82;;;;;;;12.45;100.00;100642.34;6277447;28;20044;-77
2022/10/31 01:01:53;;;;;;;18.00;6.97;;;;;;;12.54;100.00;100652.28;6294221;28;20102;-78
2022/10/31 01:04:54;;;;;;;12.07;7.40;;;;;;;12.48;100.00;100637.78;6293980;28;20125;-78
2022/10/31 01:07:55;;;;;;;12.63;6.88;;;;;;;12.52;100.00;100646.28;6295452;28;20068;-78
2022/10/31 01:11:14;;;;;;;12.90;7.20;;;;;;;12.52;100.00;100646.28;6294111;28;20041;-78
2022/10/31 01:14:17;;;;;;;15.25;7.28;;;;;;;12.49;100.00;100634.22;6293982;28;20036;-77
2022/10/31 01:17:18;;;;;;;17.27;8.02;;;;;;;12.46;100.00;100637.03;6294070;28;20040;-77
2022/10/31 01:20:18;;;;;;;14.52;6.97;;;;;;;12.44;100.00;100638.91;6277227;28;20476;-77
2022/10/31 01:23:19;;;;;;;13.20;7.75;;;;;;;12.40;100.00;100639.16;6294013;28;20036;-78
2022/10/31 01:26:29;;;;;;;12.43;6.85;;;;;;;12.40;100.00;100637.38;6295159;28;20521;-78
2022/10/31 01:29:30;;;;;;;15.98;7.68;;;;;;;12.47;100.00;100632.63;6293751;28;20492;-78
2022/10/31 01:32:31;;;;;;;13.07;7.32;;;;;;;12.49;100.00;100639.44;6293954;28;20047;-78
2022/10/31 01:35:31;;;;;;;14.10;7.35;;;;;;;12.48;100.00;100627.31;6293869;28;20041;-77
2022/10/31 01:38:32;;;;;;;12.07;6.65;;;;;;;12.48;100.00;100626.47;6293845;28;20067;-77
2022/10/31 01:41:36;;;;;;;15.02;6.55;;;;;;;12.49;100.00;100622.91;6277079;28;20083;-77
2022/10/31 01:44:37;;;;;;;15.57;6.63;;;;;;;12.48;100.00;100624.69;6293638;28;20061;-77
2022/10/31 01:47:43;;;;;;;16.40;7.15;;;;;;;12.43;100.00;100620.66;6310464;28;20052;-77
2022/10/31 01:50:48;;;;;;;11.73;6.78;;;;;;;12.26;100.00;100621.66;6331873;28;20403;-77
2022/10/31 01:53:55;;;;;;;15.27;7.07;;;;;;;12.27;100.00;100621.59;6332010;28;20491;-77
2022/10/31 01:56:59;;;;;;;11.20;6.25;;;;;;;12.36;100.00;100625.41;6331704;28;20050;-77
2022/10/31 02:00:04;;;;;;;13.60;7.53;;;;;;;12.41;100.00;100628.59;6349984;28;20479;-77
2022/10/31 02:03:05;;;;;;;15.00;7.07;;;;;;;12.44;100.00;100617.13;6331665;28;20036;-78
2022/10/31 02:06:12;;;;;;;14.20;7.00;;;;;;;12.45;100.00;100618.78;6349644;28;20459;-77
2022/10/31 02:09:13;;;;;;;14.43;6.38;;;;;;;12.38;100.00;100623.56;6331657;28;20107;-77
2022/10/31 02:12:15;;;;;;;14.07;7.22;;;;;;;12.38;100.00;100620.94;6349646;28;20063;-79
2022/10/31 02:15:16;;;;;;;12.75;6.90;;;;;;;12.40;100.00;100619.06;6349513;28;20044;-79
2022/10/31 02:18:18;;;;;;;10.60;6.55;;;;;;;12.42;100.00;100625.06;6314307;28;20408;-78
2022/10/31 02:21:30;;;;;;;12.25;6.65;;;;;;;12.39;100.00;100620.00;6331545;28;20417;-78
2022/10/31 02:24:40;;;;;;;16.92;7.78;;;;;;;12.37;100.00;100627.09;6330950;28;20044;-78
2022/10/31 02:27:56;;;;;;;13.05;7.20;;;;;;;12.40;100.00;100623.47;6331151;28;20071;-79
2022/10/31 02:31:34;;;;;;;15.82;7.10;;;;;;;12.36;100.00;100630.66;6330981;28;20050;-78
2022/10/31 02:34:44;;;;;;;13.32;7.15;;;;;;;12.35;100.00;100622.88;6330904;28;20085;-78
2022/10/31 02:37:50;;;;;;;13.60;7.72;;;;;;;12.37;100.00;100629.72;6331024;28;20071;-78
2022/10/31 02:40:56;;;;;;;15.15;7.20;;;;;;;12.39;100.00;100632.25;6313765;28;20535;-78
2022/10/31 02:44:27;;;;;;;10.98;6.57;;;;;;;12.42;100.00;100638.13;6330784;28;20522;-78
2022/10/31 02:47:32;;;;;;;22.40;7.28;;;;;;;12.44;100.00;100630.22;6327020;28;20462;-78
2022/10/31 02:50:37;;;;;;;10.52;6.28;;;;;;;12.39;100.00;100632.25;6348764;28;20139;-78
2022/10/31 02:53:38;;;;;;;16.45;7.60;;;;;;;12.41;100.00;100636.44;6348691;28;20043;-78
2022/10/31 02:56:39;;;;;;;20.98;7.90;;;;;;;12.30;100.00;100631.84;6313514;28;20050;-78
2022/10/31 02:59:46;;;;;;;13.27;7.10;;;;;;;12.32;100.00;100630.94;6329136;28;20556;-78
2022/10/31 03:03:20;;;;;;;13.30;6.55;;;;;;;12.35;100.00;100636.81;6330481;28;20042;-78
2022/10/31 03:06:39;;;;;;;15.10;7.05;;;;;;;12.35;100.00;100636.81;6275535;28;20111;-78
2022/10/31 03:09:46;;;;;;;12.30;6.57;;;;;;;12.36;100.00;100637.66;6348420;28;20402;-78
2022/10/31 03:13:15;;;;;;;13.45;6.68;;;;;;;12.28;100.00;100630.25;6330057;28;20056;-78
2022/10/31 03:16:18;;;;;;;17.50;6.68;;;;;;;12.24;100.00;100634.00;6348128;28;20042;-78
2022/10/31 03:19:26;;;;;;;17.08;5.85;;;;;;;12.23;100.00;100630.53;6348115;28;20046;-78
2022/10/31 03:22:31;;;;;;;15.73;6.32;;;;;;;12.19;100.00;100631.66;6329743;28;20039;-78
2022/10/31 03:25:32;;;;;;;9.93;5.72;;;;;;;12.13;100.00;100629.41;6347831;28;20055;-78
2022/10/31 03:28:43;;;;;;;16.77;6.95;;;;;;;12.15;100.00;100631.91;6347777;28;20036;-78
2022/10/31 03:32:19;;;;;;;13.35;6.43;;;;;;;12.08;100.00;100634.88;6329645;28;20419;-78
2022/10/31 03:35:24;;;;;;;12.73;6.68;;;;;;;12.14;100.00;100627.63;6312369;28;20055;-78
2022/10/31 03:38:25;;;;;;;16.08;7.25;;;;;;;12.21;100.00;100624.56;6329385;28;20043;-78
2022/10/31 03:41:31;;;;;;;16.42;7.40;;;;;;;12.19;100.00;100620.31;6329460;28;20043;-78
2022/10/31 03:44:34;;;;;;;15.30;7.07;;;;;;;12.19;100.00;100625.56;6329527;28;20032;-78
2022/10/31 03:47:40;;;;;;;16.30;7.20;;;;;;;12.20;100.00;100628.09;6328985;28;20130;-78
2022/10/31 03:51:11;;;;;;;14.00;6.15;;;;;;;12.21;100.00;100627.19;6347171;28;20067;-79
2022/10/31 03:54:50;;;;;;;15.88;7.57;;;;;;;12.22;100.00;100628.00;6337258;28;20059;-77
2022/10/31 03:58:02;;;;;;;16.15;7.88;;;;;;;12.18;100.00;100639.59;6290447;28;20047;-77
2022/10/31 04:01:06;;;;;;;20.35;9.95;;;;;;;12.19;100.00;100633.41;6328821;28;20078;-78
2022/10/31 04:04:08;;;;;;;46.65;15.07;;;;;;;12.23;100.00;100632.28;6346745;28;20055;-78
2022/10/31 04:07:11;;;;;;;32.38;12.73;;;;;;;12.30;100.00;100628.41;6328758;28;20036;-78
2022/10/31 04:10:14;;;;;;;21.52;9.82;;;;;;;12.33;100.00;100630.81;6328203;28;20043;-78
2022/10/31 04:13:20;;;;;;;14.57;7.85;;;;;;;12.35;100.00;100635.97;6328583;28;20039;-79
2022/10/31 04:16:23;;;;;;;14.32;7.85;;;;;;;12.34;100.00;100623.84;6346651;28;20046;-78
2022/10/31 04:19:24;;;;;;;13.50;6.97;;;;;;;12.26;100.00;100624.28;6346766;28;20095;-78
2022/10/31 04:22:25;;;;;;;9.93;5.85;;;;;;;12.30;100.00;100628.41;6311457;28;20051;-78
2022/10/31 04:25:25;;;;;;;17.83;7.13;;;;;;;12.27;100.00;100615.47;6311300;28;20051;-78
2022/10/31 04:28:27;;;;;;;13.13;6.10;;;;;;;12.20;100.00;100635.09;6311328;28;20047;-78
2022/10/31 04:31:27;;;;;;;12.00;6.00;;;;;;;12.21;100.00;100635.03;6346331;28;20073;-78
2022/10/31 04:34:28;;;;;;;12.88;6.78;;;;;;;12.19;100.00;100651.72;6328128;28;20075;-78
2022/10/31 04:37:36;;;;;;;12.52;6.47;;;;;;;12.18;100.00;100642.19;6346167;28;20118;-78
2022/10/31 04:40:37;;;;;;;11.45;6.10;;;;;;;12.21;100.00;100649.84;6327912;28;20044;-78
2022/10/31 04:43:38;;;;;;;19.27;7.13;;;;;;;12.23;100.00;100640.16;6328046;28;20481;-78
2022/10/31 04:46:38;;;;;;;15.73;7.15;;;;;;;12.23;100.00;100638.41;6327977;28;20043;-78
2022/10/31 04:49:39;;;;;;;15.35;7.15;;;;;;;12.25;100.00;100630.44;6345826;28;20051;-78
2022/10/31 04:52:47;;;;;;;13.23;7.95;;;;;;;12.30;100.00;100636.25;6327848;28;20040;-78
2022/10/31 04:55:48;;;;;;;15.75;7.97;;;;;;;12.29;100.00;100635.41;6345869;28;20070;-78
2022/10/31 04:58:49;;;;;;;10.82;6.22;;;;;;;12.27;100.00;100642.50;6310689;28;20043;-78
2022/10/31 05:01:49;;;;;;;13.35;6.38;;;;;;;12.26;100.00;100647.81;6327682;28;20055;-78
2022/10/31 05:04:52;;;;;;;8.98;5.50;;;;;;;12.14;100.00;100645.94;6327808;28;20032;-78
2022/10/31 05:07:53;;;;;;;13.65;6.03;;;;;;;12.18;100.00;100645.66;6345759;28;20046;-78
2022/10/31 05:10:54;;;;;;;17.10;5.93;;;;;;;12.22;100.00;100647.16;6345700;28;20467;-78
2022/10/31 05:13:54;;;;;;;10.13;5.45;;;;;;;12.15;100.00;100644.97;6345694;28;20255;-78
2022/10/31 05:16:55;;;;;;;12.20;6.90;;;;;;;12.15;100.00;100653.69;6327485;28;20028;-78
2022/10/31 05:19:56;;;;;;;10.82;6.93;;;;;;;12.16;100.00;100651.91;6327556;28;20098;-78
2022/10/31 05:23:00;;;;;;;11.68;6.00;;;;;;;12.18;100.00;100655.28;6330234;28;20118;-78
2022/10/31 05:26:01;;;;;;;11.18;5.93;;;;;;;12.24;100.00;100655.75;6332631;28;20039;-78
2022/10/31 05:29:02;;;;;;;13.10;6.35;;;;;;;12.21;100.00;100655.09;6350917;28;20461;-78
2022/10/31 05:32:03;;;;;;;11.50;5.47;;;;;;;12.18;100.00;100650.06;6331978;28;20403;-78
2022/10/31 05:35:08;;;;;;;11.45;5.25;;;;;;;12.13;100.00;100652.06;6332390;28;20067;-79
2022/10/31 05:38:08;;;;;;;13.63;6.22;;;;;;;12.18;100.00;100661.34;6330963;28;20082;-79
2022/10/31 05:41:09;;;;;;;14.10;5.72;;;;;;;12.20;100.00;100666.50;6350750;28;20043;-79
2022/10/31 05:44:10;;;;;;;10.18;5.18;;;;;;;12.12;100.00;100673.94;6332441;28;20039;-79
2022/10/31 05:47:11;;;;;;;8.82;4.50;;;;;;;12.05;100.00;100676.09;6331802;28;20063;-79
2022/10/31 05:50:11;;;;;;;10.00;4.35;;;;;;;11.99;100.00;100684.28;6332064;28;20062;-79
2022/10/31 05:53:13;;;;;;;9.13;4.57;;;;;;;12.04;100.00;100669.16;6332332;28;20046;-79
2022/10/31 05:56:13;;;;;;;14.50;5.07;;;;;;;12.09;100.00;100675.81;6350302;28;20043;-80
2022/10/31 05:59:14;;;;;;;10.30;5.10;;;;;;;12.14;100.00;100690.41;6349986;28;20046;-80
2022/10/31 06:02:15;;;;;;;11.30;4.70;;;;;;;12.16;100.00;100678.91;6331870;28;20035;-80
2022/10/31 06:05:18;;;;;;;13.80;5.15;;;;;;;12.18;100.00;100684.06;6331689;28;20044;-80
2022/10/31 06:08:29;;;;;;;13.38;4.93;;;;;;;12.14;100.00;100678.16;6316034;28;20058;-80
2022/10/31 06:11:30;;;;;;;8.93;4.47;;;;;;;12.18;100.00;100674.44;6314429;28;20051;-80
2022/10/31 06:14:30;;;;;;;9.43;5.13;;;;;;;12.21;100.00;100689.97;6331659;28;20048;-80
2022/10/31 06:17:32;;;;;;;14.52;6.55;;;;;;;12.22;100.00;100683.78;6349543;28;20067;-80
2022/10/31 06:20:33;;;;;;;15.98;6.07;;;;;;;12.28;100.00;100701.75;6349582;28;20200;-80
2022/10/31 06:23:34;;;;;;;12.40;5.88;;;;;;;12.25;100.00;100696.72;6331377;28;20568;-80
2022/10/31 06:26:34;;;;;;;10.77;4.82;;;;;;;12.24;100.00;100692.38;6331173;28;20035;-80
2022/10/31 06:29:36;;;;;;;9.70;5.32;;;;;;;12.22;100.00;100699.47;6314167;28;20558;-80
2022/10/31 06:32:36;;;;;;;17.67;6.28;;;;;;;12.25;100.00;100701.06;6313829;28;20058;-80
2022/10/31 06:35:37;;;;;;;8.68;5.00;;;;;;;12.29;100.00;100702.59;6349121;28;20044;-80
2022/10/31 06:38:40;;;;;;;10.88;4.65;;;;;;;12.33;100.00;100713.72;6330680;28;20071;-80
2022/10/31 06:41:41;;;;;;;10.07;5.40;;;;;;;12.30;100.00;100705.13;6314003;28;20048;-80
2022/10/31 06:44:42;;;;;;;13.05;5.75;;;;;;;12.27;100.00;100712.28;6330923;28;20108;-80
2022/10/31 06:47:42;;;;;;;8.77;4.68;;;;;;;12.20;100.00;100713.59;6330474;28;20046;-80
2022/10/31 06:50:43;;;;;;;10.02;4.95;;;;;;;12.30;100.00;100717.38;6330682;28;20063;-79
2022/10/31 06:53:44;;;;;;;9.85;5.07;;;;;;;12.37;100.00;100717.84;6330684;28;20043;-80
2022/10/31 06:56:48;;;;;;;8.55;5.35;;;;;;;12.41;100.00;100720.19;6330364;28;20104;-80
2022/10/31 06:59:49;;;;;;;8.57;5.15;;;;;;;12.38;100.00;100714.31;6313275;28;20050;-80
2022/10/31 07:02:55;;;;;;;7.70;4.55;;;;;;;12.42;100.00;100721.06;6330644;28;20236;-80
2022/10/31 07:05:56;;;;;;;8.88;4.70;;;;;;;12.45;100.00;100728.72;6313208;28;20511;-80
2022/10/31 07:08:59;;;;;;;10.43;4.75;;;;;;;12.36;100.00;100735.31;6348344;28;20046;-80
2022/10/31 07:12:00;;;;;;;8.80;4.13;;;;;;;12.38;100.00;100735.25;6348370;28;20040;-80
2022/10/31 07:15:00;;;;;;;11.20;4.40;;;;;;;12.43;100.00;100733.19;6313087;28;20058;-80
2022/10/31 07:18:06;;;;;;;10.30;5.15;;;;;;;12.49;100.00;100730.22;6347992;28;20044;-80
2022/10/31 07:21:07;;;;;;;8.00;4.18;;;;;;;12.49;100.00;100728.44;6329871;28;20128;-80
2022/10/31 07:24:08;;;;;;;10.38;5.47;;;;;;;12.33;100.00;100732.88;6329966;28;20051;-80
2022/10/31 07:27:08;;;;;;;10.30;5.05;;;;;;;12.17;100.00;100737.28;6347946;28;20065;-80
2022/10/31 07:30:13;;;;;;;8.57;4.70;;;;;;;12.18;100.00;100739.00;6329370;28;20496;-80
2022/10/31 07:33:14;;;;;;;13.40;5.30;;;;;;;12.22;100.00;100735.28;6329799;28;20162;-80
2022/10/31 07:36:15;;;;;;;9.10;4.88;;;;;;;12.17;100.00;100729.44;6347676;28;20418;-79
2022/10/31 07:39:16;;;;;;;6.70;3.73;;;;;;;12.26;100.00;100732.38;6329311;28;20032;-80
2022/10/31 07:42:17;;;;;;;6.63;3.42;;;;;;;12.33;100.00;100732.88;6329426;28;20272;-78
2022/10/31 07:45:19;;;;;;;7.80;4.35;;;;;;;12.24;100.00;100731.63;6311595;28;20268;-78
2022/10/31 07:48:23;;;;;;;10.60;4.88;;;;;;;12.29;100.00;100718.28;6329021;28;20056;-78
2022/10/31 07:51:23;;;;;;;8.55;4.25;;;;;;;12.35;100.00;100717.09;6328960;28;20047;-78
2022/10/31 07:54:24;;;;;;;6.00;3.85;;;;;;;12.47;100.00;100714.59;6312211;28;20134;-78
2022/10/31 07:57:25;;;;;;;6.13;4.05;;;;;;;12.54;100.00;100714.25;6347165;28;20043;-79
2022/10/31 08:00:26;;;;;;;11.45;5.45;;;;;;;12.61;100.00;100712.97;6311877;28;20090;-79
2022/10/31 08:03:27;;;;;;;8.05;4.57;;;;;;;12.55;100.00;100721.19;6328990;28;20039;-78
2022/10/31 08:06:27;;;;;;;11.30;4.90;;;;;;;12.49;100.00;100720.59;6346930;28;20046;-78
2022/10/31 08:09:28;;;;;;;9.20;4.72;;;;;;;12.43;100.00;100714.88;6328684;28;20090;-79
2022/10/31 08:12:29;;;;;;;9.68;4.45;;;;;;;12.37;100.00;100718.69;6328435;28;20483;-79
2022/10/31 08:15:30;;;;;;;11.77;4.57;;;;;;;12.42;100.00;100723.66;6346843;28;20071;-79
2022/10/31 08:18:34;;;;;;;13.10;5.72;;;;;;;12.44;100.00;100729.66;6311543;28;20051;-79
2022/10/31 08:21:36;;;;;;;10.02;4.80;;;;;;;12.47;100.00;100732.91;6311449;28;20138;-79
2022/10/31 08:24:37;;;;;;;8.90;4.50;;;;;;;12.47;100.00;100732.09;6328408;28;20104;-79
2022/10/31 08:27:40;;;;;;;9.68;4.85;;;;;;;12.48;100.00;100724.16;6328503;28;20040;-79
2022/10/31 08:30:41;;;;;;;8.65;4.43;;;;;;;12.36;100.00;100737.09;6346485;28;20532;-79
2022/10/31 08:33:42;;;;;;;10.27;4.78;;;;;;;12.21;100.00;100739.69;6311272;28;20130;-79
2022/10/31 08:36:45;;;;;;;6.70;3.70;;;;;;;12.13;100.00;100728.81;6328217;28;20040;-79
2022/10/31 08:39:46;;;;;;;6.22;4.32;;;;;;;12.34;100.00;100734.56;6346143;28;20050;-79
2022/10/31 08:42:47;;;;;;;9.07;5.05;;;;;;;12.52;100.00;100732.69;6311098;28;20142;-79
2022/10/31 08:45:49;;;;;;;5.40;3.20;;;;;;;12.51;100.00;100733.59;6346084;28;20494;-79
2022/10/31 08:48:50;;;;;;;7.32;3.58;;;;;;;12.41;100.00;100735.91;6327752;28;20051;-79
2022/10/31 08:51:51;;;;;;;8.40;4.40;;;;;;;12.47;100.00;100732.91;6310787;28;20158;-79
2022/10/31 08:54:52;;;;;;;8.75;3.95;;;;;;;12.53;100.00;100730.91;6327960;28;20093;-79
2022/10/31 08:57:57;;;;;;;8.55;3.80;;;;;;;12.60;100.00;100743.53;6345950;28;20441;-79
2022/10/31 09:01:00;;;;;;;6.97;3.88;;;;;;;12.61;100.00;100739.13;6327703;28;20048;-79
2022/10/31 09:04:00;;;;;;;10.93;5.13;;;;;;;12.65;100.00;100744.09;6310776;28;20047;-79
2022/10/31 09:07:01;;;;;;;9.68;5.55;;;;;;;12.61;100.00;100749.63;6310643;28;20071;-79
2022/10/31 09:10:02;;;;;;;7.88;4.60;;;;;;;12.41;100.00;100741.13;6310469;28;20116;-79
2022/10/31 09:13:07;;;;;;;6.90;4.32;;;;;;;12.57;100.00;100748.09;6310639;28;20051;-79
2022/10/31 09:16:08;;;;;;;7.93;4.03;;;;;;;12.58;100.00;100744.53;6345610;28;20035;-78
2022/10/31 09:19:11;;;;;;;8.82;4.30;;;;;;;12.54;100.00;100748.28;6345369;28;20035;-79
2022/10/31 09:22:12;;;;;;;9.02;3.90;;;;;;;12.64;100.00;100750.28;6310562;28;20071;-79
2022/10/31 09:25:13;;;;;;;17.88;4.90;;;;;;;12.70;100.00;100762.16;6327489;28;20480;-79
2022/10/31 09:28:16;;;;;;;9.73;4.80;;;;;;;12.70;100.00;100764.78;6345505;28;20377;-78
2022/10/31 09:31:17;;;;;;;10.25;5.03;;;;;;;12.70;100.00;100768.25;6345350;28;20139;-78
2022/10/31 09:34:18;;;;;;;11.90;6.63;;;;;;;12.66;100.00;100766.75;6345506;28;20065;-78
2022/10/31 09:37:21;;;;;;;11.77;5.65;;;;;;;12.59;100.00;100775.88;6345299;28;20043;-78
2022/10/31 09:40:27;;;;;;;9.98;5.38;;;;;;;12.64;100.00;100776.47;6326997;28;20055;-78
2022/10/31 09:43:44;;;;;;;9.63;5.35;;;;;;;12.72;100.00;100767.31;6327028;28;20125;-78
2022/10/31 09:46:56;;;;;;;12.80;6.75;;;;;;;12.58;100.00;100763.72;6326985;28;20392;-78
2022/10/31 09:50:17;;;;;;;13.13;6.43;;;;;;;12.70;100.00;100765.63;6344830;28;20088;-78
2022/10/31 09:53:29;;;;;;;7.70;4.68;;;;;;;12.74;100.00;100758.41;6327237;28;20043;-78
2022/10/31 09:56:31;;;;;;;9.90;4.90;;;;;;;12.76;100.00;100764.41;6326995;28;20667;-77
2022/10/31 09:59:40;;;;;;;11.10;5.72;;;;;;;12.78;100.00;100767.78;6326877;28;20036;-78
2022/10/31 10:03:20;;;;;;;15.00;7.25;;;;;;;12.78;100.00;100772.19;6326980;28;20126;-77
2022/10/31 10:06:25;;;;;;;9.35;4.97;;;;;;;12.87;100.00;100771.66;6326927;28;20047;-77
2022/10/31 10:09:26;;;;;;;10.13;4.53;;;;;;;12.90;100.00;100767.06;6330838;28;20588;-79
2022/10/31 10:13:02;;;;;;;9.38;5.13;;;;;;;12.96;100.00;100772.88;6331471;28;20567;-79
2022/10/31 10:16:33;;;;;;;6.82;4.35;;;;;;;12.97;100.00;100772.78;6249052;28;20084;-79
2022/10/31 10:19:47;;;;;;;8.88;5.03;;;;;;;13.02;100.00;100759.41;6310065;28;20450;-78
2022/10/31 10:23:17;;;;;;;8.85;5.18;;;;;;;12.96;100.00;100768.47;6349621;28;20040;-78
2022/10/31 10:26:27;;;;;;;7.88;4.57;;;;;;;12.94;100.00;100766.88;6328232;28;20520;-78
2022/10/31 10:29:42;;;;;;;7.13;4.07;;;;;;;13.02;100.00;100755.00;6313988;28;20044;-79
2022/10/31 10:32:54;;;;;;;10.70;5.13;;;;;;;13.14;100.00;100765.66;6331019;28;20039;-79
2022/10/31 10:36:05;;;;;;;9.43;4.72;;;;;;;13.13;100.00;100756.97;6313969;28;20043;-79
2022/10/31 10:39:36;;;;;;;6.57;4.05;;;;;;;13.09;100.00;100756.34;6330864;28;20035;-79
2022/10/31 10:49:39;;;;;;;9.50;4.55;;;;;;;13.02;100.00;100755.00;6330389;28;20064;-77
2022/10/31 10:53:20;;;;;;;8.35;3.75;;;;;;;13.08;100.00;100756.44;6348669;28;20120;-79
2022/10/31 10:56:40;;;;;;;7.22;4.05;;;;;;;13.08;100.00;100748.56;6317520;28;20048;-78
2022/10/31 10:59:41;;;;;;;9.23;4.68;;;;;;;13.06;100.00;100753.06;6330356;28;20039;-79
2022/10/31 11:02:42;;;;;;;9.98;5.10;;;;;;;13.10;100.00;100755.41;6313450;28;20071;-79
2022/10/31 11:05:56;;;;;;;9.60;5.40;;;;;;;13.12;100.00;100747.44;6348434;28;20162;-78
2022/10/31 11:09:09;;;;;;;11.27;5.13;;;;;;;13.09;100.00;100737.13;6330272;28;20505;-77
2022/10/31 11:12:15;;;;;;;8.05;4.25;;;;;;;13.12;100.00;100746.63;6329869;28;20043;-76
2022/10/31 11:15:24;;;;;;;35.42;21.08;;;;;;;13.19;100.00;100742.66;6348306;28;20453;-77
2022/10/31 11:18:27;;;;;;;54.15;30.45;;;;;;;13.17;100.00;100747.16;6329335;28;20031;-77
2022/10/31 11:21:29;;;;;;;23.35;12.70;;;;;;;13.10;100.00;100744.91;6312345;28;20073;-77
2022/10/31 11:24:37;;;;;;;17.10;9.00;;;;;;;13.10;100.00;100746.69;6329681;28;20047;-77
2022/10/31 11:27:38;;;;;;;10.27;6.13;;;;;;;13.09;100.00;100734.53;6312779;28;20075;-77
2022/10/31 11:30:46;;;;;;;9.93;5.05;;;;;;;13.06;100.00;100734.72;6347611;28;20046;-77
2022/10/31 11:34:05;;;;;;;8.00;4.95;;;;;;;13.13;100.00;100732.56;6347833;28;20039;-77
2022/10/31 11:37:19;;;;;;;10.15;5.45;;;;;;;13.17;100.00;100727.03;6312668;28;20470;-77
2022/10/31 11:40:23;;;;;;;9.88;4.93;;;;;;;13.20;100.00;100739.09;6347545;28;20050;-77
2022/10/31 11:43:25;;;;;;;9.88;5.70;;;;;;;13.13;100.00;100733.41;6329352;28;20169;-77
2022/10/31 11:46:42;;;;;;;15.07;6.45;;;;;;;13.16;100.00;100741.09;6329235;28;20528;-76
2022/10/31 11:49:49;;;;;;;12.35;6.32;;;;;;;13.17;100.00;100739.31;6312032;28;20069;-77
2022/10/31 11:52:51;;;;;;;14.52;7.00;;;;;;;13.13;100.00;100733.41;6329426;28;20060;-76
2022/10/31 11:56:04;;;;;;;11.05;5.40;;;;;;;13.12;100.00;100726.50;6347287;28;20036;-75
2022/10/31 11:59:16;;;;;;;17.25;5.65;;;;;;;13.06;100.00;100732.94;6312152;28;20518;-75
2022/10/31 12:02:19;;;;;;;11.27;6.60;;;;;;;13.05;100.00;100726.03;6347069;28;20051;-75
2022/10/31 12:05:23;;;;;;;;;;;;;;;13.05;100.00;100722.53;6347438;28;20044;-76
2022/10/31 12:08:31;;;;;;;10.77;5.40;;;;;;;13.04;100.00;100724.31;6328661;28;19920;-75
2022/10/31 12:11:49;;;;;;;10.77;5.85;;;;;;;12.98;100.00;100724.69;6346721;28;20118;-75
2022/10/31 12:14:55;;;;;;;13.35;7.28;;;;;;;12.95;100.00;100724.91;6346811;28;20035;-75
2022/10/31 12:18:08;;;;;;;11.63;5.85;;;;;;;12.95;100.00;100721.41;6328584;28;20119;-75
2022/10/31 12:21:27;;;;;;;13.27;6.57;;;;;;;12.95;100.00;100717.03;6346635;28;20058;-75
2022/10/31 12:24:55;;;;;;;11.88;6.18;;;;;;;12.93;100.00;100721.53;6346528;28;20414;-75
2022/10/31 12:28:07;;;;;;;10.45;5.68;;;;;;;12.92;100.00;100722.44;6328234;28;20035;-77
2022/10/31 12:31:29;;;;;;;14.00;5.93;;;;;;;12.95;100.00;100722.28;6327741;28;20399;-75
2022/10/31 12:34:33;;;;;;;12.75;5.93;;;;;;;13.04;100.00;100713.84;6328321;28;20046;-77
2022/10/31 12:37:46;;;;;;;10.85;5.97;;;;;;;13.00;100.00;100706.28;6328162;28;20062;-76
2022/10/31 12:41:10;;;;;;;13.13;6.22;;;;;;;12.97;100.00;100709.94;6327975;28;20051;-75
2022/10/31 12:44:54;;;;;;;11.07;5.55;;;;;;;12.92;100.00;100708.50;6328077;28;20074;-77
2022/10/31 12:48:24;;;;;;;11.20;6.68;;;;;;;12.85;100.00;100708.88;6327575;28;20135;-75
2022/10/31 12:51:37;;;;;;;13.27;5.10;;;;;;;12.87;100.00;100707.00;6310716;28;20491;-75
2022/10/31 12:54:47;;;;;;;14.98;6.28;;;;;;;12.81;100.00;100707.38;6346028;28;20079;-75
2022/10/31 12:57:53;;;;;;;12.38;6.25;;;;;;;12.90;100.00;100711.22;6327614;28;20108;-75
2022/10/31 13:01:22;;;;;;;10.05;4.95;;;;;;;12.89;100.00;100717.41;6345822;28;20070;-76
2022/10/31 13:04:38;;;;;;;10.73;5.30;;;;;;;12.69;100.00;100711.56;6328770;27;20139;-77
2022/10/31 13:07:43;;;;;;;9.48;4.72;;;;;;;12.84;100.00;100707.19;6333592;28;20044;-77
2022/10/31 13:11:00;;;;;;;9.65;5.05;;;;;;;12.86;100.00;100707.94;6325253;28;20073;-75
2022/10/31 13:14:11;;;;;;;12.15;5.20;;;;;;;12.75;100.00;100706.91;6327534;28;20124;-75
2022/10/31 13:17:27;;;;;;;13.15;4.75;;;;;;;12.74;100.00;100716.53;6345923;28;20121;-77
2022/10/31 13:20:44;;;;;;;10.48;6.00;;;;;;;12.76;100.00;100722.50;6327661;28;20047;-75
2022/10/31 13:23:48;;;;;;;10.98;6.55;;;;;;;12.81;100.00;100714.41;6327590;28;20046;-75
2022/10/31 13:26:58;;;;;;;11.38;6.43;;;;;;;12.82;100.00;100721.31;6327660;28;20044;-75
2022/10/31 13:30:03;;;;;;;12.15;5.20;;;;;;;12.73;100.00;100720.09;6345561;28;20071;-77
2022/10/31 13:33:19;;;;;;;16.55;7.15;;;;;;;12.76;100.00;100727.75;6310725;28;20522;-75
2022/10/31 13:36:41;;;;;;;12.32;6.47;;;;;;;12.75;100.00;100731.31;6327180;28;20043;-75
2022/10/31 13:40:25;;;;;;;14.65;6.30;;;;;;;12.78;100.00;100725.03;6328014;28;20040;-76
2022/10/31 13:43:50;;;;;;;10.57;5.70;;;;;;;12.55;100.00;100714.16;6330168;28;20039;-77
2022/10/31 13:46:52;;;;;;;10.48;5.72;;;;;;;12.49;100.00;100722.38;6332639;28;20035;-77
2022/10/31 13:50:30;;;;;;;14.95;6.65;;;;;;;12.57;100.00;100721.94;6331959;28;20127;-77
2022/10/31 13:53:39;;;;;;;12.73;6.13;;;;;;;12.78;100.00;100725.88;6322282;28;20059;-75
2022/10/31 13:56:40;;;;;;;14.90;6.28;;;;;;;12.78;100.00;100723.25;6331928;28;20041;-75
2022/10/31 13:59:49;;;;;;;18.13;7.93;;;;;;;12.54;100.00;100715.09;6332062;28;20082;-77
2022/10/31 14:02:56;;;;;;;12.80;6.63;;;;;;;12.41;100.00;100714.94;6350110;28;20097;-77
2022/10/31 14:05:57;;;;;;;16.55;8.13;;;;;;;12.40;100.00;100725.53;6314771;28;20047;-77
2022/10/31 14:08:58;;;;;;;18.75;8.82;;;;;;;12.32;100.00;100714.66;6331911;28;20039;-77
2022/10/31 14:12:22;;;;;;;13.35;7.25;;;;;;;12.16;100.00;100719.94;6331566;28;20472;-75
2022/10/31 14:15:28;;;;;;;13.55;7.63;;;;;;;12.25;100.00;100716.78;6317511;28;20052;-78
2022/10/31 14:18:33;;;;;;;14.55;6.60;;;;;;;12.17;100.00;100717.22;6331544;28;20039;-78